sensor_id;sensor_type;location;lat;lon;timestamp;P1;durP1;ratioP1;P2;durP2;ratioP2
21822;SDS011;11074;48.596;9.238;2024-03-02T00:01:03;13.38;;;8.55;;
21822;SDS011;11074;48.596;9.238;2024-03-02T00:03:29;13.93;;;9.30;;
21822;SDS011;11074;48.596;9.238;2024-03-02T00:05:54;15.97;;;10.00;;
21822;SDS011;11074;48.596;9.238;2024-03-02T00:08:22;16.27;;;10.38;;
21822;SDS011;11074;48.596;9.238;2024-03-02T00:10:49;14.38;;;9.43;;
21822;SDS011;11074;48.596;9.238;2024-03-02T00:13:15;15.40;;;9.38;;
21822;SDS011;11074;48.596;9.238;2024-03-02T00:15:47;12.73;;;8.77;;
21822;SDS011;11074;48.596;9.238;2024-03-02T00:18:31;15.05;;;9.13;;
21822;SDS011;11074;48.596;9.238;2024-03-02T00:20:58;13.60;;;8.63;;
21822;SDS011;11074;48.596;9.238;2024-03-02T00:23:27;12.50;;;8.57;;
21822;SDS011;11074;48.596;9.238;2024-03-02T00:25:54;12.85;;;9.23;;
21822;SDS011;11074;48.596;9.238;2024-03-02T00:28:24;14.30;;;9.13;;
21822;SDS011;11074;48.596;9.238;2024-03-02T00:33:37;15.00;;;9.82;;
21822;SDS011;11074;48.596;9.238;2024-03-02T00:36:08;13.48;;;9.65;;
21822;SDS011;11074;48.596;9.238;2024-03-02T00:38:34;13.43;;;9.38;;
21822;SDS011;11074;48.596;9.238;2024-03-02T00:41:11;13.68;;;9.15;;
21822;SDS011;11074;48.596;9.238;2024-03-02T00:43:42;14.07;;;8.73;;
21822;SDS011;11074;48.596;9.238;2024-03-02T00:46:26;12.82;;;8.77;;
21822;SDS011;11074;48.596;9.238;2024-03-02T00:48:58;14.75;;;9.00;;
21822;SDS011;11074;48.596;9.238;2024-03-02T00:51:48;16.58;;;10.27;;
21822;SDS011;11074;48.596;9.238;2024-03-02T00:54:14;14.63;;;9.50;;
21822;SDS011;11074;48.596;9.238;2024-03-02T00:56:43;15.40;;;9.50;;
21822;SDS011;11074;48.596;9.238;2024-03-02T00:59:09;17.73;;;9.60;;
21822;SDS011;11074;48.596;9.238;2024-03-02T01:01:35;12.93;;;9.02;;
21822;SDS011;11074;48.596;9.238;2024-03-02T01:04:00;15.20;;;8.77;;
21822;SDS011;11074;48.596;9.238;2024-03-02T01:06:26;14.00;;;8.50;;
21822;SDS011;11074;48.596;9.238;2024-03-02T01:08:51;15.40;;;9.10;;
21822;SDS011;11074;48.596;9.238;2024-03-02T01:11:16;13.33;;;8.83;;
21822;SDS011;11074;48.596;9.238;2024-03-02T01:13:43;15.63;;;9.07;;
21822;SDS011;11074;48.596;9.238;2024-03-02T01:16:09;11.25;;;8.15;;
21822;SDS011;11074;48.596;9.238;2024-03-02T01:18:34;12.13;;;8.40;;
21822;SDS011;11074;48.596;9.238;2024-03-02T01:20:59;13.25;;;8.38;;
21822;SDS011;11074;48.596;9.238;2024-03-02T01:23:25;12.27;;;8.73;;
21822;SDS011;11074;48.596;9.238;2024-03-02T01:25:51;14.35;;;9.05;;
21822;SDS011;11074;48.596;9.238;2024-03-02T01:28:17;15.13;;;9.63;;
21822;SDS011;11074;48.596;9.238;2024-03-02T01:30:44;16.00;;;9.85;;
21822;SDS011;11074;48.596;9.238;2024-03-02T01:33:09;16.90;;;9.55;;
21822;SDS011;11074;48.596;9.238;2024-03-02T01:35:35;13.48;;;9.23;;
21822;SDS011;11074;48.596;9.238;2024-03-02T01:38:00;14.10;;;9.25;;
21822;SDS011;11074;48.596;9.238;2024-03-02T01:40:26;14.27;;;9.77;;
21822;SDS011;11074;48.596;9.238;2024-03-02T01:42:52;13.00;;;9.50;;
21822;SDS011;11074;48.596;9.238;2024-03-02T01:45:23;17.20;;;10.50;;
21822;SDS011;11074;48.596;9.238;2024-03-02T01:47:48;14.15;;;9.75;;
21822;SDS011;11074;48.596;9.238;2024-03-02T01:50:14;17.52;;;10.63;;
21822;SDS011;11074;48.596;9.238;2024-03-02T01:52:40;16.05;;;11.45;;
21822;SDS011;11074;48.596;9.238;2024-03-02T01:55:06;17.52;;;11.43;;
21822;SDS011;11074;48.596;9.238;2024-03-02T01:57:32;16.35;;;11.32;;
21822;SDS011;11074;48.596;9.238;2024-03-02T01:59:58;16.73;;;11.43;;
21822;SDS011;11074;48.596;9.238;2024-03-02T02:02:25;17.25;;;11.27;;
21822;SDS011;11074;48.596;9.238;2024-03-02T02:04:50;15.57;;;10.88;;
21822;SDS011;11074;48.596;9.238;2024-03-02T02:07:15;16.83;;;10.97;;
21822;SDS011;11074;48.596;9.238;2024-03-02T02:09:41;14.82;;;10.32;;
21822;SDS011;11074;48.596;9.238;2024-03-02T02:12:07;16.83;;;10.80;;
21822;SDS011;11074;48.596;9.238;2024-03-02T02:14:32;19.02;;;11.23;;
21822;SDS011;11074;48.596;9.238;2024-03-02T02:16:58;15.23;;;10.15;;
21822;SDS011;11074;48.596;9.238;2024-03-02T02:19:24;16.08;;;10.40;;
21822;SDS011;11074;48.596;9.238;2024-03-02T02:21:49;16.83;;;10.73;;
21822;SDS011;11074;48.596;9.238;2024-03-02T02:24:14;15.53;;;10.03;;
21822;SDS011;11074;48.596;9.238;2024-03-02T02:26:39;15.23;;;10.47;;
21822;SDS011;11074;48.596;9.238;2024-03-02T02:29:04;15.47;;;10.73;;
21822;SDS011;11074;48.596;9.238;2024-03-02T02:31:39;15.20;;;10.02;;
21822;SDS011;11074;48.596;9.238;2024-03-02T02:34:06;14.32;;;10.25;;
21822;SDS011;11074;48.596;9.238;2024-03-02T02:36:32;15.45;;;9.90;;
21822;SDS011;11074;48.596;9.238;2024-03-02T02:38:59;13.93;;;9.63;;
21822;SDS011;11074;48.596;9.238;2024-03-02T02:41:28;14.27;;;9.90;;
21822;SDS011;11074;48.596;9.238;2024-03-02T02:43:54;13.63;;;9.55;;
21822;SDS011;11074;48.596;9.238;2024-03-02T02:46:19;15.75;;;10.00;;
21822;SDS011;11074;48.596;9.238;2024-03-02T02:48:45;13.47;;;9.40;;
21822;SDS011;11074;48.596;9.238;2024-03-02T02:51:10;12.70;;;9.07;;
21822;SDS011;11074;48.596;9.238;2024-03-02T02:53:35;15.52;;;10.02;;
21822;SDS011;11074;48.596;9.238;2024-03-02T02:56:05;14.27;;;9.55;;
21822;SDS011;11074;48.596;9.238;2024-03-02T02:58:30;12.63;;;8.50;;
21822;SDS011;11074;48.596;9.238;2024-03-02T03:00:56;12.63;;;9.03;;
21822;SDS011;11074;48.596;9.238;2024-03-02T03:03:21;11.75;;;8.77;;
21822;SDS011;11074;48.596;9.238;2024-03-02T03:05:46;13.47;;;8.27;;
21822;SDS011;11074;48.596;9.238;2024-03-02T03:08:12;12.02;;;8.65;;
21822;SDS011;11074;48.596;9.238;2024-03-02T03:10:37;11.93;;;8.40;;
21822;SDS011;11074;48.596;9.238;2024-03-02T03:13:02;12.00;;;8.10;;
21822;SDS011;11074;48.596;9.238;2024-03-02T03:15:28;11.75;;;7.63;;
21822;SDS011;11074;48.596;9.238;2024-03-02T03:17:53;13.77;;;8.18;;
21822;SDS011;11074;48.596;9.238;2024-03-02T03:20:18;11.90;;;7.82;;
21822;SDS011;11074;48.596;9.238;2024-03-02T03:22:46;12.02;;;7.63;;
21822;SDS011;11074;48.596;9.238;2024-03-02T03:25:11;11.07;;;7.87;;
21822;SDS011;11074;48.596;9.238;2024-03-02T03:27:37;11.30;;;7.20;;
21822;SDS011;11074;48.596;9.238;2024-03-02T03:30:02;10.90;;;7.88;;
21822;SDS011;11074;48.596;9.238;2024-03-02T03:32:28;10.32;;;7.55;;
21822;SDS011;11074;48.596;9.238;2024-03-02T03:34:53;13.57;;;8.00;;
21822;SDS011;11074;48.596;9.238;2024-03-02T03:37:19;12.00;;;8.02;;
21822;SDS011;11074;48.596;9.238;2024-03-02T03:39:44;13.15;;;8.68;;
21822;SDS011;11074;48.596;9.238;2024-03-02T03:42:09;13.88;;;8.48;;
21822;SDS011;11074;48.596;9.238;2024-03-02T03:44:34;12.20;;;8.50;;
21822;SDS011;11074;48.596;9.238;2024-03-02T03:47:00;12.52;;;8.40;;
21822;SDS011;11074;48.596;9.238;2024-03-02T03:49:27;12.20;;;7.65;;
21822;SDS011;11074;48.596;9.238;2024-03-02T03:51:52;12.80;;;8.43;;
21822;SDS011;11074;48.596;9.238;2024-03-02T03:54:18;12.02;;;7.90;;
21822;SDS011;11074;48.596;9.238;2024-03-02T03:56:43;11.95;;;8.57;;
21822;SDS011;11074;48.596;9.238;2024-03-02T03:59:08;11.57;;;8.00;;
21822;SDS011;11074;48.596;9.238;2024-03-02T04:01:33;13.07;;;8.90;;
21822;SDS011;11074;48.596;9.238;2024-03-02T04:03:59;15.00;;;9.53;;
21822;SDS011;11074;48.596;9.238;2024-03-02T04:06:24;13.35;;;8.45;;
21822;SDS011;11074;48.596;9.238;2024-03-02T04:08:50;13.23;;;8.77;;
21822;SDS011;11074;48.596;9.238;2024-03-02T04:11:15;14.05;;;8.73;;
21822;SDS011;11074;48.596;9.238;2024-03-02T04:13:41;15.23;;;7.97;;
21822;SDS011;11074;48.596;9.238;2024-03-02T04:16:06;12.17;;;8.17;;
21822;SDS011;11074;48.596;9.238;2024-03-02T04:18:31;12.95;;;7.97;;
21822;SDS011;11074;48.596;9.238;2024-03-02T04:21:00;13.45;;;8.30;;
21822;SDS011;11074;48.596;9.238;2024-03-02T04:23:25;11.65;;;7.63;;
21822;SDS011;11074;48.596;9.238;2024-03-02T04:25:51;13.23;;;8.38;;
21822;SDS011;11074;48.596;9.238;2024-03-02T04:28:16;13.73;;;8.30;;
21822;SDS011;11074;48.596;9.238;2024-03-02T04:30:43;12.25;;;8.20;;
21822;SDS011;11074;48.596;9.238;2024-03-02T04:33:08;13.40;;;8.02;;
21822;SDS011;11074;48.596;9.238;2024-03-02T04:35:35;13.05;;;8.00;;
21822;SDS011;11074;48.596;9.238;2024-03-02T04:38:01;10.55;;;7.53;;
21822;SDS011;11074;48.596;9.238;2024-03-02T04:40:26;12.45;;;8.20;;
21822;SDS011;11074;48.596;9.238;2024-03-02T04:42:51;12.00;;;8.43;;
21822;SDS011;11074;48.596;9.238;2024-03-02T04:45:16;11.35;;;7.35;;
21822;SDS011;11074;48.596;9.238;2024-03-02T04:47:42;11.38;;;8.02;;
21822;SDS011;11074;48.596;9.238;2024-03-02T04:50:07;11.27;;;7.83;;
21822;SDS011;11074;48.596;9.238;2024-03-02T04:52:33;12.15;;;8.02;;
21822;SDS011;11074;48.596;9.238;2024-03-02T04:54:58;10.40;;;6.90;;
21822;SDS011;11074;48.596;9.238;2024-03-02T04:57:42;11.85;;;7.55;;
21822;SDS011;11074;48.596;9.238;2024-03-02T05:00:08;10.75;;;7.53;;
21822;SDS011;11074;48.596;9.238;2024-03-02T05:02:35;11.93;;;7.53;;
21822;SDS011;11074;48.596;9.238;2024-03-02T05:05:00;10.68;;;7.88;;
21822;SDS011;11074;48.596;9.238;2024-03-02T05:07:25;13.00;;;8.18;;
21822;SDS011;11074;48.596;9.238;2024-03-02T05:09:51;11.33;;;7.83;;
21822;SDS011;11074;48.596;9.238;2024-03-02T05:12:16;12.23;;;8.07;;
21822;SDS011;11074;48.596;9.238;2024-03-02T05:14:57;16.42;;;8.43;;
21822;SDS011;11074;48.596;9.238;2024-03-02T05:17:22;15.38;;;8.60;;
21822;SDS011;11074;48.596;9.238;2024-03-02T05:19:47;17.53;;;8.77;;
21822;SDS011;11074;48.596;9.238;2024-03-02T05:22:13;13.45;;;8.27;;
21822;SDS011;11074;48.596;9.238;2024-03-02T05:24:38;14.27;;;6.88;;
21822;SDS011;11074;48.596;9.238;2024-03-02T05:27:03;18.97;;;6.33;;
21822;SDS011;11074;48.596;9.238;2024-03-02T05:29:40;19.50;;;6.07;;
21822;SDS011;11074;48.596;9.238;2024-03-02T05:32:05;19.40;;;6.22;;
21822;SDS011;11074;48.596;9.238;2024-03-02T05:34:31;16.73;;;5.45;;
21822;SDS011;11074;48.596;9.238;2024-03-02T05:36:59;22.48;;;6.45;;
21822;SDS011;11074;48.596;9.238;2024-03-02T05:39:25;20.00;;;6.07;;
21822;SDS011;11074;48.596;9.238;2024-03-02T05:41:50;12.87;;;6.77;;
21822;SDS011;11074;48.596;9.238;2024-03-02T05:44:16;21.90;;;7.82;;
21822;SDS011;11074;48.596;9.238;2024-03-02T05:46:41;9.57;;;6.82;;
21822;SDS011;11074;48.596;9.238;2024-03-02T05:49:07;9.73;;;6.32;;
21822;SDS011;11074;48.596;9.238;2024-03-02T05:51:33;8.48;;;6.47;;
21822;SDS011;11074;48.596;9.238;2024-03-02T05:53:58;13.57;;;6.28;;
21822;SDS011;11074;48.596;9.238;2024-03-02T05:56:24;18.00;;;7.18;;
21822;SDS011;11074;48.596;9.238;2024-03-02T05:58:49;27.93;;;7.30;;
21822;SDS011;11074;48.596;9.238;2024-03-02T06:01:33;38.63;;;10.20;;
21822;SDS011;11074;48.596;9.238;2024-03-02T06:03:58;16.98;;;7.50;;
21822;SDS011;11074;48.596;9.238;2024-03-02T06:06:23;19.40;;;8.70;;
21822;SDS011;11074;48.596;9.238;2024-03-02T06:08:49;15.27;;;8.40;;
21822;SDS011;11074;48.596;9.238;2024-03-02T06:11:15;19.33;;;9.93;;
21822;SDS011;11074;48.596;9.238;2024-03-02T06:13:40;43.55;;;21.88;;
21822;SDS011;11074;48.596;9.238;2024-03-02T06:16:06;13.00;;;8.40;;
21822;SDS011;11074;48.596;9.238;2024-03-02T06:18:31;12.95;;;8.07;;
21822;SDS011;11074;48.596;9.238;2024-03-02T06:20:57;8.80;;;6.03;;
21822;SDS011;11074;48.596;9.238;2024-03-02T06:23:22;9.30;;;5.93;;
21822;SDS011;11074;48.596;9.238;2024-03-02T06:25:48;9.43;;;5.90;;
21822;SDS011;11074;48.596;9.238;2024-03-02T06:28:13;9.25;;;6.32;;
21822;SDS011;11074;48.596;9.238;2024-03-02T06:30:40;10.95;;;6.28;;
21822;SDS011;11074;48.596;9.238;2024-03-02T06:33:07;9.85;;;6.40;;
21822;SDS011;11074;48.596;9.238;2024-03-02T06:35:32;13.40;;;7.17;;
21822;SDS011;11074;48.596;9.238;2024-03-02T06:37:57;10.23;;;6.47;;
21822;SDS011;11074;48.596;9.238;2024-03-02T06:40:24;8.98;;;6.07;;
21822;SDS011;11074;48.596;9.238;2024-03-02T06:42:49;9.63;;;6.53;;
21822;SDS011;11074;48.596;9.238;2024-03-02T06:45:14;11.00;;;6.87;;
21822;SDS011;11074;48.596;9.238;2024-03-02T06:47:40;9.70;;;6.63;;
21822;SDS011;11074;48.596;9.238;2024-03-02T06:50:05;11.57;;;7.73;;
21822;SDS011;11074;48.596;9.238;2024-03-02T06:52:32;12.50;;;8.20;;
21822;SDS011;11074;48.596;9.238;2024-03-02T06:54:57;11.95;;;7.75;;
21822;SDS011;11074;48.596;9.238;2024-03-02T06:57:22;10.88;;;7.35;;
21822;SDS011;11074;48.596;9.238;2024-03-02T06:59:49;14.30;;;9.20;;
21822;SDS011;11074;48.596;9.238;2024-03-02T07:02:16;12.15;;;8.05;;
21822;SDS011;11074;48.596;9.238;2024-03-02T07:04:41;13.15;;;8.35;;
21822;SDS011;11074;48.596;9.238;2024-03-02T07:07:07;12.40;;;7.60;;
21822;SDS011;11074;48.596;9.238;2024-03-02T07:09:32;10.67;;;7.63;;
21822;SDS011;11074;48.596;9.238;2024-03-02T07:11:57;14.15;;;9.60;;
21822;SDS011;11074;48.596;9.238;2024-03-02T07:14:23;21.60;;;14.55;;
21822;SDS011;11074;48.596;9.238;2024-03-02T07:17:08;13.82;;;9.13;;
21822;SDS011;11074;48.596;9.238;2024-03-02T07:19:34;12.65;;;9.35;;
21822;SDS011;11074;48.596;9.238;2024-03-02T07:22:00;12.30;;;8.57;;
21822;SDS011;11074;48.596;9.238;2024-03-02T07:24:25;13.23;;;8.20;;
21822;SDS011;11074;48.596;9.238;2024-03-02T07:26:50;11.23;;;7.43;;
21822;SDS011;11074;48.596;9.238;2024-03-02T07:29:16;12.07;;;8.00;;
21822;SDS011;11074;48.596;9.238;2024-03-02T07:31:41;13.73;;;7.90;;
21822;SDS011;11074;48.596;9.238;2024-03-02T07:34:06;12.00;;;8.03;;
21822;SDS011;11074;48.596;9.238;2024-03-02T07:36:33;13.37;;;8.20;;
21822;SDS011;11074;48.596;9.238;2024-03-02T07:38:58;12.40;;;8.52;;
21822;SDS011;11074;48.596;9.238;2024-03-02T07:41:24;13.38;;;8.05;;
21822;SDS011;11074;48.596;9.238;2024-03-02T07:43:49;12.90;;;8.43;;
21822;SDS011;11074;48.596;9.238;2024-03-02T07:46:14;13.52;;;8.73;;
21822;SDS011;11074;48.596;9.238;2024-03-02T07:48:40;12.97;;;8.70;;
21822;SDS011;11074;48.596;9.238;2024-03-02T07:51:07;13.35;;;8.68;;
21822;SDS011;11074;48.596;9.238;2024-03-02T07:53:32;13.47;;;8.90;;
21822;SDS011;11074;48.596;9.238;2024-03-02T07:55:57;13.57;;;8.73;;
21822;SDS011;11074;48.596;9.238;2024-03-02T07:58:27;13.35;;;8.68;;
21822;SDS011;11074;48.596;9.238;2024-03-02T08:00:52;13.80;;;8.95;;
21822;SDS011;11074;48.596;9.238;2024-03-02T08:03:18;12.15;;;8.20;;
21822;SDS011;11074;48.596;9.238;2024-03-02T08:05:44;16.73;;;9.85;;
21822;SDS011;11074;48.596;9.238;2024-03-02T08:08:09;15.32;;;9.75;;
21822;SDS011;11074;48.596;9.238;2024-03-02T08:10:34;15.82;;;10.23;;
21822;SDS011;11074;48.596;9.238;2024-03-02T08:13:00;17.48;;;10.13;;
21822;SDS011;11074;48.596;9.238;2024-03-02T08:15:26;16.15;;;10.20;;
21822;SDS011;11074;48.596;9.238;2024-03-02T08:17:51;15.00;;;8.77;;
21822;SDS011;11074;48.596;9.238;2024-03-02T08:20:17;12.25;;;8.85;;
21822;SDS011;11074;48.596;9.238;2024-03-02T08:22:42;12.52;;;9.10;;
21822;SDS011;11074;48.596;9.238;2024-03-02T08:25:08;13.63;;;8.90;;
21822;SDS011;11074;48.596;9.238;2024-03-02T08:27:33;13.82;;;9.45;;
21822;SDS011;11074;48.596;9.238;2024-03-02T08:29:59;14.52;;;9.55;;
21822;SDS011;11074;48.596;9.238;2024-03-02T08:32:24;16.27;;;9.20;;
21822;SDS011;11074;48.596;9.238;2024-03-02T08:34:49;13.38;;;9.05;;
21822;SDS011;11074;48.596;9.238;2024-03-02T08:37:15;13.65;;;8.85;;
21822;SDS011;11074;48.596;9.238;2024-03-02T08:39:40;13.20;;;9.30;;
21822;SDS011;11074;48.596;9.238;2024-03-02T08:42:05;14.30;;;9.27;;
21822;SDS011;11074;48.596;9.238;2024-03-02T08:44:31;14.82;;;9.90;;
21822;SDS011;11074;48.596;9.238;2024-03-02T08:46:58;15.18;;;9.63;;
21822;SDS011;11074;48.596;9.238;2024-03-02T08:49:26;16.70;;;10.48;;
21822;SDS011;11074;48.596;9.238;2024-03-02T08:51:51;15.65;;;10.10;;
21822;SDS011;11074;48.596;9.238;2024-03-02T08:54:22;13.18;;;9.18;;
21822;SDS011;11074;48.596;9.238;2024-03-02T08:56:50;17.25;;;10.60;;
21822;SDS011;11074;48.596;9.238;2024-03-02T08:59:16;16.27;;;9.98;;
21822;SDS011;11074;48.596;9.238;2024-03-02T09:01:41;14.00;;;9.45;;
21822;SDS011;11074;48.596;9.238;2024-03-02T09:04:08;14.32;;;9.50;;
21822;SDS011;11074;48.596;9.238;2024-03-02T09:06:33;16.02;;;9.80;;
21822;SDS011;11074;48.596;9.238;2024-03-02T09:08:59;14.57;;;9.25;;
21822;SDS011;11074;48.596;9.238;2024-03-02T09:11:24;15.85;;;10.05;;
21822;SDS011;11074;48.596;9.238;2024-03-02T09:13:50;17.85;;;9.80;;
21822;SDS011;11074;48.596;9.238;2024-03-02T09:16:15;13.07;;;9.57;;
21822;SDS011;11074;48.596;9.238;2024-03-02T09:18:40;13.75;;;9.73;;
21822;SDS011;11074;48.596;9.238;2024-03-02T09:21:06;13.57;;;9.32;;
21822;SDS011;11074;48.596;9.238;2024-03-02T09:23:33;15.32;;;9.95;;
21822;SDS011;11074;48.596;9.238;2024-03-02T09:25:59;14.70;;;9.82;;
21822;SDS011;11074;48.596;9.238;2024-03-02T09:28:24;15.68;;;10.10;;
21822;SDS011;11074;48.596;9.238;2024-03-02T09:30:49;12.70;;;9.50;;
21822;SDS011;11074;48.596;9.238;2024-03-02T09:33:15;13.73;;;9.70;;
21822;SDS011;11074;48.596;9.238;2024-03-02T09:35:40;16.52;;;10.15;;
21822;SDS011;11074;48.596;9.238;2024-03-02T09:38:05;13.07;;;9.13;;
21822;SDS011;11074;48.596;9.238;2024-03-02T09:40:31;12.00;;;8.90;;
21822;SDS011;11074;48.596;9.238;2024-03-02T09:42:56;15.80;;;9.75;;
21822;SDS011;11074;48.596;9.238;2024-03-02T09:45:23;11.25;;;8.00;;
21822;SDS011;11074;48.596;9.238;2024-03-02T09:47:49;14.65;;;8.80;;
21822;SDS011;11074;48.596;9.238;2024-03-02T09:50:14;13.27;;;9.07;;
21822;SDS011;11074;48.596;9.238;2024-03-02T09:52:40;13.15;;;8.73;;
21822;SDS011;11074;48.596;9.238;2024-03-02T09:55:07;13.30;;;8.48;;
21822;SDS011;11074;48.596;9.238;2024-03-02T09:57:33;10.20;;;7.55;;
21822;SDS011;11074;48.596;9.238;2024-03-02T09:59:58;11.97;;;8.33;;
21822;SDS011;11074;48.596;9.238;2024-03-02T10:02:23;11.63;;;8.13;;
21822;SDS011;11074;48.596;9.238;2024-03-02T10:04:49;10.35;;;7.25;;
21822;SDS011;11074;48.596;9.238;2024-03-02T10:07:15;10.90;;;7.20;;
21822;SDS011;11074;48.596;9.238;2024-03-02T10:09:44;9.35;;;6.88;;
21822;SDS011;11074;48.596;9.238;2024-03-02T10:12:14;11.30;;;6.75;;
21822;SDS011;11074;48.596;9.238;2024-03-02T10:14:41;11.73;;;7.15;;
21822;SDS011;11074;48.596;9.238;2024-03-02T10:17:07;9.75;;;6.60;;
21822;SDS011;11074;48.596;9.238;2024-03-02T10:19:34;8.07;;;6.28;;
21822;SDS011;11074;48.596;9.238;2024-03-02T10:22:03;9.07;;;6.50;;
21822;SDS011;11074;48.596;9.238;2024-03-02T10:24:40;8.68;;;5.78;;
21822;SDS011;11074;48.596;9.238;2024-03-02T10:27:09;7.65;;;5.63;;
21822;SDS011;11074;48.596;9.238;2024-03-02T10:29:39;7.85;;;5.75;;
21822;SDS011;11074;48.596;9.238;2024-03-02T10:32:05;6.78;;;5.10;;
21822;SDS011;11074;48.596;9.238;2024-03-02T10:34:34;7.18;;;5.05;;
21822;SDS011;11074;48.596;9.238;2024-03-02T10:37:10;8.82;;;5.30;;
21822;SDS011;11074;48.596;9.238;2024-03-02T10:39:36;6.70;;;5.03;;
21822;SDS011;11074;48.596;9.238;2024-03-02T10:42:04;8.13;;;5.22;;
21822;SDS011;11074;48.596;9.238;2024-03-02T10:44:31;8.32;;;5.38;;
21822;SDS011;11074;48.596;9.238;2024-03-02T10:46:59;7.43;;;5.53;;
21822;SDS011;11074;48.596;9.238;2024-03-02T10:49:27;7.82;;;5.13;;
21822;SDS011;11074;48.596;9.238;2024-03-02T10:51:54;7.15;;;4.72;;
21822;SDS011;11074;48.596;9.238;2024-03-02T10:54:19;7.95;;;4.93;;
21822;SDS011;11074;48.596;9.238;2024-03-02T10:56:50;7.38;;;5.03;;
21822;SDS011;11074;48.596;9.238;2024-03-02T11:01:48;6.63;;;4.97;;
21822;SDS011;11074;48.596;9.238;2024-03-02T11:04:18;7.70;;;5.35;;
21822;SDS011;11074;48.596;9.238;2024-03-02T11:06:48;5.97;;;4.72;;
21822;SDS011;11074;48.596;9.238;2024-03-02T11:09:15;6.57;;;4.97;;
21822;SDS011;11074;48.596;9.238;2024-03-02T11:11:43;8.00;;;4.85;;
21822;SDS011;11074;48.596;9.238;2024-03-02T11:14:14;6.30;;;4.00;;
21822;SDS011;11074;48.596;9.238;2024-03-02T11:16:42;4.55;;;3.58;;
21822;SDS011;11074;48.596;9.238;2024-03-02T11:19:14;7.40;;;3.60;;
21822;SDS011;11074;48.596;9.238;2024-03-02T11:21:41;6.18;;;4.03;;
21822;SDS011;11074;48.596;9.238;2024-03-02T11:24:28;4.95;;;3.63;;
21822;SDS011;11074;48.596;9.238;2024-03-02T11:26:57;4.93;;;3.13;;
21822;SDS011;11074;48.596;9.238;2024-03-02T11:32:00;4.70;;;3.10;;
21822;SDS011;11074;48.596;9.238;2024-03-02T11:34:30;4.50;;;3.05;;
21822;SDS011;11074;48.596;9.238;2024-03-02T11:36:56;4.13;;;3.03;;
21822;SDS011;11074;48.596;9.238;2024-03-02T11:39:30;3.78;;;2.83;;
21822;SDS011;11074;48.596;9.238;2024-03-02T11:41:57;4.47;;;3.13;;
21822;SDS011;11074;48.596;9.238;2024-03-02T11:44:27;4.57;;;3.03;;
21822;SDS011;11074;48.596;9.238;2024-03-02T11:46:58;4.38;;;2.70;;
21822;SDS011;11074;48.596;9.238;2024-03-02T11:49:41;5.05;;;2.65;;
21822;SDS011;11074;48.596;9.238;2024-03-02T11:52:12;4.88;;;1.90;;
21822;SDS011;11074;48.596;9.238;2024-03-02T11:54:38;3.80;;;2.15;;
21822;SDS011;11074;48.596;9.238;2024-03-02T11:57:06;3.08;;;2.38;;
21822;SDS011;11074;48.596;9.238;2024-03-02T11:59:32;3.53;;;2.60;;
21822;SDS011;11074;48.596;9.238;2024-03-02T12:01:57;3.58;;;2.17;;
21822;SDS011;11074;48.596;9.238;2024-03-02T12:04:24;5.28;;;2.30;;
21822;SDS011;11074;48.596;9.238;2024-03-02T12:06:59;3.25;;;2.35;;
21822;SDS011;11074;48.596;9.238;2024-03-02T12:09:26;4.05;;;2.38;;
21822;SDS011;11074;48.596;9.238;2024-03-02T12:12:05;3.38;;;2.10;;
21822;SDS011;11074;48.596;9.238;2024-03-02T12:14:34;3.03;;;2.22;;
21822;SDS011;11074;48.596;9.238;2024-03-02T12:17:01;4.30;;;2.05;;
21822;SDS011;11074;48.596;9.238;2024-03-02T12:19:27;3.22;;;2.25;;
21822;SDS011;11074;48.596;9.238;2024-03-02T12:21:54;4.65;;;2.55;;
21822;SDS011;11074;48.596;9.238;2024-03-02T12:24:21;2.33;;;1.90;;
21822;SDS011;11074;48.596;9.238;2024-03-02T12:26:47;3.60;;;2.20;;
21822;SDS011;11074;48.596;9.238;2024-03-02T12:29:14;3.08;;;2.10;;
21822;SDS011;11074;48.596;9.238;2024-03-02T12:31:40;3.17;;;2.00;;
21822;SDS011;11074;48.596;9.238;2024-03-02T12:34:07;3.95;;;2.05;;
21822;SDS011;11074;48.596;9.238;2024-03-02T12:36:39;2.38;;;1.90;;
21822;SDS011;11074;48.596;9.238;2024-03-02T12:39:06;2.58;;;1.65;;
21822;SDS011;11074;48.596;9.238;2024-03-02T12:41:33;3.33;;;1.88;;
21822;SDS011;11074;48.596;9.238;2024-03-02T12:43:58;2.40;;;1.57;;
21822;SDS011;11074;48.596;9.238;2024-03-02T12:46:23;3.50;;;1.50;;
21822;SDS011;11074;48.596;9.238;2024-03-02T12:48:49;1.80;;;1.15;;
21822;SDS011;11074;48.596;9.238;2024-03-02T12:51:15;1.77;;;1.13;;
21822;SDS011;11074;48.596;9.238;2024-03-02T12:53:40;1.45;;;1.00;;
21822;SDS011;11074;48.596;9.238;2024-03-02T12:56:05;1.60;;;1.20;;
21822;SDS011;11074;48.596;9.238;2024-03-02T12:58:38;1.63;;;1.10;;
21822;SDS011;11074;48.596;9.238;2024-03-02T13:01:06;1.92;;;1.17;;
21822;SDS011;11074;48.596;9.238;2024-03-02T13:03:37;1.38;;;0.88;;
21822;SDS011;11074;48.596;9.238;2024-03-02T13:06:03;1.50;;;1.05;;
21822;SDS011;11074;48.596;9.238;2024-03-02T13:08:32;2.22;;;1.52;;
21822;SDS011;11074;48.596;9.238;2024-03-02T13:10:58;2.78;;;1.25;;
21822;SDS011;11074;48.596;9.238;2024-03-02T13:13:23;6.43;;;3.25;;
21822;SDS011;11074;48.596;9.238;2024-03-02T13:15:49;2.05;;;1.30;;
21822;SDS011;11074;48.596;9.238;2024-03-02T13:18:14;2.97;;;1.30;;
21822;SDS011;11074;48.596;9.238;2024-03-02T13:20:39;7.28;;;3.85;;
21822;SDS011;11074;48.596;9.238;2024-03-02T13:23:05;9.73;;;5.13;;
21822;SDS011;11074;48.596;9.238;2024-03-02T13:25:31;3.35;;;1.85;;
21822;SDS011;11074;48.596;9.238;2024-03-02T13:27:57;1.30;;;1.05;;
21822;SDS011;11074;48.596;9.238;2024-03-02T13:30:23;2.28;;;0.90;;
21822;SDS011;11074;48.596;9.238;2024-03-02T13:32:48;1.47;;;1.20;;
21822;SDS011;11074;48.596;9.238;2024-03-02T13:35:13;1.43;;;1.00;;
21822;SDS011;11074;48.596;9.238;2024-03-02T13:37:39;2.25;;;1.13;;
21822;SDS011;11074;48.596;9.238;2024-03-02T13:40:04;2.33;;;1.10;;
21822;SDS011;11074;48.596;9.238;2024-03-02T13:42:30;2.88;;;1.33;;
21822;SDS011;11074;48.596;9.238;2024-03-02T13:44:56;1.55;;;1.15;;
21822;SDS011;11074;48.596;9.238;2024-03-02T13:47:21;1.00;;;0.90;;
21822;SDS011;11074;48.596;9.238;2024-03-02T13:49:46;1.15;;;0.85;;
21822;SDS011;11074;48.596;9.238;2024-03-02T13:52:13;2.05;;;1.00;;
21822;SDS011;11074;48.596;9.238;2024-03-02T13:54:39;1.00;;;0.77;;
21822;SDS011;11074;48.596;9.238;2024-03-02T13:57:06;1.65;;;0.80;;
21822;SDS011;11074;48.596;9.238;2024-03-02T13:59:32;1.73;;;0.90;;
21822;SDS011;11074;48.596;9.238;2024-03-02T14:01:59;1.02;;;0.90;;
21822;SDS011;11074;48.596;9.238;2024-03-02T14:04:24;2.65;;;0.80;;
21822;SDS011;11074;48.596;9.238;2024-03-02T14:06:50;1.38;;;0.70;;
21822;SDS011;11074;48.596;9.238;2024-03-02T14:09:15;1.80;;;0.90;;
21822;SDS011;11074;48.596;9.238;2024-03-02T14:11:40;1.43;;;0.80;;
21822;SDS011;11074;48.596;9.238;2024-03-02T14:14:05;3.00;;;0.90;;
21822;SDS011;11074;48.596;9.238;2024-03-02T14:16:31;1.10;;;0.77;;
21822;SDS011;11074;48.596;9.238;2024-03-02T14:18:56;1.30;;;0.80;;
21822;SDS011;11074;48.596;9.238;2024-03-02T14:21:21;1.02;;;0.75;;
21822;SDS011;11074;48.596;9.238;2024-03-02T14:23:47;1.60;;;1.00;;
21822;SDS011;11074;48.596;9.238;2024-03-02T14:26:12;1.30;;;0.80;;
21822;SDS011;11074;48.596;9.238;2024-03-02T14:28:37;1.52;;;0.90;;
21822;SDS011;11074;48.596;9.238;2024-03-02T14:31:03;1.17;;;0.90;;
21822;SDS011;11074;48.596;9.238;2024-03-02T14:33:28;2.00;;;0.90;;
21822;SDS011;11074;48.596;9.238;2024-03-02T14:35:53;1.43;;;0.80;;
21822;SDS011;11074;48.596;9.238;2024-03-02T14:38:19;3.00;;;1.67;;
21822;SDS011;11074;48.596;9.238;2024-03-02T14:40:44;1.50;;;1.08;;
21822;SDS011;11074;48.596;9.238;2024-03-02T14:43:10;0.83;;;0.80;;